sensor_id;sensor_type;location;lat;lon;timestamp;temperature;humidity
42421;DHT22;28063;48.140;11.588;2022-08-03T00:01:30;20.10;84.70
42421;DHT22;28063;48.140;11.588;2022-08-03T00:03:56;20.00;85.00
42421;DHT22;28063;48.140;11.588;2022-08-03T00:06:22;20.00;85.20
42421;DHT22;28063;48.140;11.588;2022-08-03T00:08:48;19.90;85.40
42421;DHT22;28063;48.140;11.588;2022-08-03T00:11:14;19.80;85.80
42421;DHT22;28063;48.140;11.588;2022-08-03T00:13:39;19.80;86.40
42421;DHT22;28063;48.140;11.588;2022-08-03T00:16:05;19.70;86.60
42421;DHT22;28063;48.140;11.588;2022-08-03T00:18:31;19.70;87.00
42421;DHT22;28063;48.140;11.588;2022-08-03T00:20:57;19.70;87.40
42421;DHT22;28063;48.140;11.588;2022-08-03T00:23:22;19.60;87.80
42421;DHT22;28063;48.140;11.588;2022-08-03T00:25:48;19.60;88.10
42421;DHT22;28063;48.140;11.588;2022-08-03T00:28:13;19.60;88.30
42421;DHT22;28063;48.140;11.588;2022-08-03T00:30:39;19.70;88.40
42421;DHT22;28063;48.140;11.588;2022-08-03T00:33:05;19.60;88.20
42421;DHT22;28063;48.140;11.588;2022-08-03T00:35:30;19.60;88.20
42421;DHT22;28063;48.140;11.588;2022-08-03T00:37:56;19.60;88.60
42421;DHT22;28063;48.140;11.588;2022-08-03T00:40:22;19.50;88.40
42421;DHT22;28063;48.140;11.588;2022-08-03T00:42:55;19.50;88.40
42421;DHT22;28063;48.140;11.588;2022-08-03T00:45:32;19.50;88.40
42421;DHT22;28063;48.140;11.588;2022-08-03T00:47:58;19.60;88.50
42421;DHT22;28063;48.140;11.588;2022-08-03T00:50:27;19.50;88.20
42421;DHT22;28063;48.140;11.588;2022-08-03T00:52:55;19.50;88.30
42421;DHT22;28063;48.140;11.588;2022-08-03T00:55:21;19.50;88.10
42421;DHT22;28063;48.140;11.588;2022-08-03T00:57:47;19.50;88.10
42421;DHT22;28063;48.140;11.588;2022-08-03T01:00:16;19.50;88.10
42421;DHT22;28063;48.140;11.588;2022-08-03T01:02:43;19.40;88.20
42421;DHT22;28063;48.140;11.588;2022-08-03T01:05:09;19.40;88.40
42421;DHT22;28063;48.140;11.588;2022-08-03T01:13:02;19.30;88.70
42421;DHT22;28063;48.140;11.588;2022-08-03T01:15:37;19.30;88.90
42421;DHT22;28063;48.140;11.588;2022-08-03T01:18:51;19.30;89.10
42421;DHT22;28063;48.140;11.588;2022-08-03T01:20:57;19.20;89.10
42421;DHT22;28063;48.140;11.588;2022-08-03T01:26:39;19.10;89.80
42421;DHT22;28063;48.140;11.588;2022-08-03T01:31:41;19.00;90.20
42421;DHT22;28063;48.140;11.588;2022-08-03T01:34:11;19.00;90.10
42421;DHT22;28063;48.140;11.588;2022-08-03T01:36:43;19.00;90.10
42421;DHT22;28063;48.140;11.588;2022-08-03T01:39:15;19.00;90.10
42421;DHT22;28063;48.140;11.588;2022-08-03T01:41:47;18.90;90.30
42421;DHT22;28063;48.140;11.588;2022-08-03T01:44:14;18.90;90.50
42421;DHT22;28063;48.140;11.588;2022-08-03T01:46:40;18.90;90.70
42421;DHT22;28063;48.140;11.588;2022-08-03T01:49:10;18.90;90.70
42421;DHT22;28063;48.140;11.588;2022-08-03T01:51:38;18.80;90.70
42421;DHT22;28063;48.140;11.588;2022-08-03T01:54:08;18.80;90.70
42421;DHT22;28063;48.140;11.588;2022-08-03T01:56:35;18.80;90.70
42421;DHT22;28063;48.140;11.588;2022-08-03T01:59:03;18.80;90.80
42421;DHT22;28063;48.140;11.588;2022-08-03T02:01:30;18.80;90.80
42421;DHT22;28063;48.140;11.588;2022-08-03T02:03:58;18.80;90.90
42421;DHT22;28063;48.140;11.588;2022-08-03T02:06:26;18.70;91.10
42421;DHT22;28063;48.140;11.588;2022-08-03T02:08:53;18.70;91.10
42421;DHT22;28063;48.140;11.588;2022-08-03T02:11:20;18.60;91.30
42421;DHT22;28063;48.140;11.588;2022-08-03T02:13:46;18.60;91.30
42421;DHT22;28063;48.140;11.588;2022-08-03T02:16:13;18.50;91.50
42421;DHT22;28063;48.140;11.588;2022-08-03T02:18:39;18.50;91.70
42421;DHT22;28063;48.140;11.588;2022-08-03T02:21:07;18.50;91.70
42421;DHT22;28063;48.140;11.588;2022-08-03T02:23:35;18.50;91.80
42421;DHT22;28063;48.140;11.588;2022-08-03T02:26:03;18.50;91.80
42421;DHT22;28063;48.140;11.588;2022-08-03T02:28:34;18.40;91.70
42421;DHT22;28063;48.140;11.588;2022-08-03T02:31:05;18.40;91.70
42421;DHT22;28063;48.140;11.588;2022-08-03T02:33:36;18.40;91.80
42421;DHT22;28063;48.140;11.588;2022-08-03T02:36:03;18.40;91.90
42421;DHT22;28063;48.140;11.588;2022-08-03T02:38:35;18.40;91.80
42421;DHT22;28063;48.140;11.588;2022-08-03T02:41:06;18.40;91.80
42421;DHT22;28063;48.140;11.588;2022-08-03T02:43:34;18.40;91.90
42421;DHT22;28063;48.140;11.588;2022-08-03T02:46:01;18.40;91.90
42421;DHT22;28063;48.140;11.588;2022-08-03T02:48:29;18.40;92.00
42421;DHT22;28063;48.140;11.588;2022-08-03T02:50:58;18.40;92.10
42421;DHT22;28063;48.140;11.588;2022-08-03T02:53:25;18.30;92.10
42421;DHT22;28063;48.140;11.588;2022-08-03T02:55:52;18.30;92.30
42421;DHT22;28063;48.140;11.588;2022-08-03T02:58:20;18.30;92.40
42421;DHT22;28063;48.140;11.588;2022-08-03T03:00:48;18.20;92.60
42421;DHT22;28063;48.140;11.588;2022-08-03T03:03:16;18.20;92.70
42421;DHT22;28063;48.140;11.588;2022-08-03T03:05:42;18.20;92.90
42421;DHT22;28063;48.140;11.588;2022-08-03T03:08:12;18.10;93.00
42421;DHT22;28063;48.140;11.588;2022-08-03T03:10:40;18.10;93.20
42421;DHT22;28063;48.140;11.588;2022-08-03T03:13:06;18.10;93.30
42421;DHT22;28063;48.140;11.588;2022-08-03T03:15:34;18.10;93.30
42421;DHT22;28063;48.140;11.588;2022-08-03T03:18:02;18.10;93.40
42421;DHT22;28063;48.140;11.588;2022-08-03T03:20:28;18.10;93.50
42421;DHT22;28063;48.140;11.588;2022-08-03T03:22:55;18.10;93.60
42421;DHT22;28063;48.140;11.588;2022-08-03T03:25:22;18.10;93.60
42421;DHT22;28063;48.140;11.588;2022-08-03T03:27:49;18.00;93.60
42421;DHT22;28063;48.140;11.588;2022-08-03T03:30:15;18.00;93.70
42421;DHT22;28063;48.140;11.588;2022-08-03T03:32:41;18.00;93.90
42421;DHT22;28063;48.140;11.588;2022-08-03T03:35:07;18.00;93.80
42421;DHT22;28063;48.140;11.588;2022-08-03T03:37:34;18.00;93.90
42421;DHT22;28063;48.140;11.588;2022-08-03T03:40:00;18.00;93.80
42421;DHT22;28063;48.140;11.588;2022-08-03T03:42:26;18.00;93.80
42421;DHT22;28063;48.140;11.588;2022-08-03T03:44:51;18.10;94.00
42421;DHT22;28063;48.140;11.588;2022-08-03T03:47:17;18.10;94.00
42421;DHT22;28063;48.140;11.588;2022-08-03T03:49:43;18.00;94.00
42421;DHT22;28063;48.140;11.588;2022-08-03T03:52:09;18.10;94.10
42421;DHT22;28063;48.140;11.588;2022-08-03T03:54:42;18.00;94.00
42421;DHT22;28063;48.140;11.588;2022-08-03T03:57:08;18.10;94.10
42421;DHT22;28063;48.140;11.588;2022-08-03T03:59:39;18.00;94.20
42421;DHT22;28063;48.140;11.588;2022-08-03T04:02:06;18.00;94.20
42421;DHT22;28063;48.140;11.588;2022-08-03T04:04:34;18.10;94.20
42421;DHT22;28063;48.140;11.588;2022-08-03T04:07:19;18.00;94.20
42421;DHT22;28063;48.140;11.588;2022-08-03T04:10:09;18.00;94.30
42421;DHT22;28063;48.140;11.588;2022-08-03T04:12:56;18.00;94.40
42421;DHT22;28063;48.140;11.588;2022-08-03T04:15:25;18.00;94.30
42421;DHT22;28063;48.140;11.588;2022-08-03T04:17:53;18.00;94.30
42421;DHT22;28063;48.140;11.588;2022-08-03T04:20:22;18.10;94.40
42421;DHT22;28063;48.140;11.588;2022-08-03T04:22:50;18.10;94.40
42421;DHT22;28063;48.140;11.588;2022-08-03T04:25:17;18.10;94.40
42421;DHT22;28063;48.140;11.588;2022-08-03T04:27:46;18.00;94.30
42421;DHT22;28063;48.140;11.588;2022-08-03T04:30:13;18.10;94.20
42421;DHT22;28063;48.140;11.588;2022-08-03T04:32:40;18.10;94.20
42421;DHT22;28063;48.140;11.588;2022-08-03T04:35:08;18.10;94.00
42421;DHT22;28063;48.140;11.588;2022-08-03T04:37:38;18.10;94.00
42421;DHT22;28063;48.140;11.588;2022-08-03T04:40:07;18.10;94.00
42421;DHT22;28063;48.140;11.588;2022-08-03T04:42:36;18.10;93.90
42421;DHT22;28063;48.140;11.588;2022-08-03T04:45:03;18.10;93.80
42421;DHT22;28063;48.140;11.588;2022-08-03T04:47:32;18.20;93.70
42421;DHT22;28063;48.140;11.588;2022-08-03T04:50:00;18.20;93.70
42421;DHT22;28063;48.140;11.588;2022-08-03T04:52:26;18.20;93.70
42421;DHT22;28063;48.140;11.588;2022-08-03T04:54:52;18.20;93.60
42421;DHT22;28063;48.140;11.588;2022-08-03T04:57:18;18.30;93.50
42421;DHT22;28063;48.140;11.588;2022-08-03T04:59:44;18.30;93.30
42421;DHT22;28063;48.140;11.588;2022-08-03T05:02:09;18.30;93.20
42421;DHT22;28063;48.140;11.588;2022-08-03T05:04:35;18.30;93.10
42421;DHT22;28063;48.140;11.588;2022-08-03T05:07:02;18.40;93.10
42421;DHT22;28063;48.140;11.588;2022-08-03T05:09:28;18.40;93.00
42421;DHT22;28063;48.140;11.588;2022-08-03T05:11:54;18.40;92.90
42421;DHT22;28063;48.140;11.588;2022-08-03T05:14:20;18.50;92.70
42421;DHT22;28063;48.140;11.588;2022-08-03T05:16:45;18.50;92.50
42421;DHT22;28063;48.140;11.588;2022-08-03T05:19:11;18.60;92.30
42421;DHT22;28063;48.140;11.588;2022-08-03T05:21:37;18.70;92.20
42421;DHT22;28063;48.140;11.588;2022-08-03T05:24:03;18.90;91.70
42421;DHT22;28063;48.140;11.588;2022-08-03T05:26:29;19.20;91.30
42421;DHT22;28063;48.140;11.588;2022-08-03T05:28:54;19.40;90.80
42421;DHT22;28063;48.140;11.588;2022-08-03T05:31:20;19.60;90.20
42421;DHT22;28063;48.140;11.588;2022-08-03T05:33:46;19.70;89.20
42421;DHT22;28063;48.140;11.588;2022-08-03T05:36:13;19.70;89.00
42421;DHT22;28063;48.140;11.588;2022-08-03T05:38:39;19.70;89.10
42421;DHT22;28063;48.140;11.588;2022-08-03T05:41:04;19.80;88.90
42421;DHT22;28063;48.140;11.588;2022-08-03T05:43:30;19.90;88.00
42421;DHT22;28063;48.140;11.588;2022-08-03T05:45:56;20.10;87.30
42421;DHT22;28063;48.140;11.588;2022-08-03T05:48:23;20.20;86.90
42421;DHT22;28063;48.140;11.588;2022-08-03T05:50:49;20.40;86.20
42421;DHT22;28063;48.140;11.588;2022-08-03T05:53:14;20.50;85.20
42421;DHT22;28063;48.140;11.588;2022-08-03T05:55:40;20.60;84.50
42421;DHT22;28063;48.140;11.588;2022-08-03T05:58:05;20.70;83.80
42421;DHT22;28063;48.140;11.588;2022-08-03T06:00:31;20.70;83.70
42421;DHT22;28063;48.140;11.588;2022-08-03T06:02:57;20.80;83.40
42421;DHT22;28063;48.140;11.588;2022-08-03T06:05:23;21.10;83.10
42421;DHT22;28063;48.140;11.588;2022-08-03T06:07:51;24.10;80.50
42421;DHT22;28063;48.140;11.588;2022-08-03T06:10:18;28.50;67.50
42421;DHT22;28063;48.140;11.588;2022-08-03T06:12:43;32.10;56.80
42421;DHT22;28063;48.140;11.588;2022-08-03T06:17:45;35.90;45.90
42421;DHT22;28063;48.140;11.588;2022-08-03T06:20:11;36.30;44.40
42421;DHT22;28063;48.140;11.588;2022-08-03T06:22:37;37.00;43.50
42421;DHT22;28063;48.140;11.588;2022-08-03T06:25:03;37.80;42.00
42421;DHT22;28063;48.140;11.588;2022-08-03T06:27:29;38.20;41.10
42421;DHT22;28063;48.140;11.588;2022-08-03T06:29:54;38.70;41.00
42421;DHT22;28063;48.140;11.588;2022-08-03T06:32:20;39.10;40.20
42421;DHT22;28063;48.140;11.588;2022-08-03T06:34:47;39.50;39.60
42421;DHT22;28063;48.140;11.588;2022-08-03T06:37:13;39.70;39.00
42421;DHT22;28063;48.140;11.588;2022-08-03T06:39:39;39.90;38.50
42421;DHT22;28063;48.140;11.588;2022-08-03T06:42:04;39.40;38.00
42421;DHT22;28063;48.140;11.588;2022-08-03T06:44:30;38.60;38.60
42421;DHT22;28063;48.140;11.588;2022-08-03T06:46:56;38.90;38.60
42421;DHT22;28063;48.140;11.588;2022-08-03T06:49:21;39.00;38.90
42421;DHT22;28063;48.140;11.588;2022-08-03T06:51:47;39.30;38.50
42421;DHT22;28063;48.140;11.588;2022-08-03T06:54:15;39.40;38.10
42421;DHT22;28063;48.140;11.588;2022-08-03T06:56:40;39.30;37.90
42421;DHT22;28063;48.140;11.588;2022-08-03T06:59:06;39.30;37.80
42421;DHT22;28063;48.140;11.588;2022-08-03T07:01:32;38.70;38.00
42421;DHT22;28063;48.140;11.588;2022-08-03T07:03:57;38.10;38.10
42421;DHT22;28063;48.140;11.588;2022-08-03T07:06:24;37.30;38.70
42421;DHT22;28063;48.140;11.588;2022-08-03T07:08:50;36.80;39.50
42421;DHT22;28063;48.140;11.588;2022-08-03T07:11:21;36.20;39.80
42421;DHT22;28063;48.140;11.588;2022-08-03T07:13:48;34.90;40.70
42421;DHT22;28063;48.140;11.588;2022-08-03T07:16:32;32.00;43.30
42421;DHT22;28063;48.140;11.588;2022-08-03T07:21:30;27.50;50.70
42421;DHT22;28063;48.140;11.588;2022-08-03T07:23:59;26.30;54.20
42421;DHT22;28063;48.140;11.588;2022-08-03T07:26:36;25.50;56.20
42421;DHT22;28063;48.140;11.588;2022-08-03T07:29:05;25.00;58.20
42421;DHT22;28063;48.140;11.588;2022-08-03T07:31:30;24.60;59.80
42421;DHT22;28063;48.140;11.588;2022-08-03T07:33:56;24.40;61.40
42421;DHT22;28063;48.140;11.588;2022-08-03T07:36:22;24.30;61.40
42421;DHT22;28063;48.140;11.588;2022-08-03T07:38:49;24.20;61.90
42421;DHT22;28063;48.140;11.588;2022-08-03T07:41:15;24.20;62.40
42421;DHT22;28063;48.140;11.588;2022-08-03T07:43:41;24.10;62.70
42421;DHT22;28063;48.140;11.588;2022-08-03T07:46:06;24.20;62.90
42421;DHT22;28063;48.140;11.588;2022-08-03T07:48:32;24.20;62.80
42421;DHT22;28063;48.140;11.588;2022-08-03T07:50:58;24.30;62.40
42421;DHT22;28063;48.140;11.588;2022-08-03T07:53:23;24.30;62.20
42421;DHT22;28063;48.140;11.588;2022-08-03T07:55:49;24.40;62.40
42421;DHT22;28063;48.140;11.588;2022-08-03T07:58:15;24.40;62.50
42421;DHT22;28063;48.140;11.588;2022-08-03T08:00:43;24.50;61.80
42421;DHT22;28063;48.140;11.588;2022-08-03T08:03:09;24.60;61.40
42421;DHT22;28063;48.140;11.588;2022-08-03T08:05:35;24.80;61.50
42421;DHT22;28063;48.140;11.588;2022-08-03T08:08:02;24.90;61.40
42421;DHT22;28063;48.140;11.588;2022-08-03T08:10:28;24.90;60.90
42421;DHT22;28063;48.140;11.588;2022-08-03T08:12:54;25.10;60.40
42421;DHT22;28063;48.140;11.588;2022-08-03T08:15:20;25.20;59.80
42421;DHT22;28063;48.140;11.588;2022-08-03T08:17:47;25.30;59.80
42421;DHT22;28063;48.140;11.588;2022-08-03T08:20:18;25.40;59.70
42421;DHT22;28063;48.140;11.588;2022-08-03T08:22:44;25.50;59.30
42421;DHT22;28063;48.140;11.588;2022-08-03T08:25:10;25.60;59.30
42421;DHT22;28063;48.140;11.588;2022-08-03T08:27:47;25.80;59.20
42421;DHT22;28063;48.140;11.588;2022-08-03T08:30:15;25.90;58.90
42421;DHT22;28063;48.140;11.588;2022-08-03T08:32:42;26.10;58.80
42421;DHT22;28063;48.140;11.588;2022-08-03T08:35:08;26.20;58.50
42421;DHT22;28063;48.140;11.588;2022-08-03T08:37:34;26.40;58.20
42421;DHT22;28063;48.140;11.588;2022-08-03T08:40:00;26.50;57.80
42421;DHT22;28063;48.140;11.588;2022-08-03T08:42:26;26.70;56.50
42421;DHT22;28063;48.140;11.588;2022-08-03T08:44:52;26.70;56.00
42421;DHT22;28063;48.140;11.588;2022-08-03T08:47:23;26.80;56.00
42421;DHT22;28063;48.140;11.588;2022-08-03T08:49:52;27.00;55.60
42421;DHT22;28063;48.140;11.588;2022-08-03T08:52:29;27.00;54.10
42421;DHT22;28063;48.140;11.588;2022-08-03T08:54:57;27.10;53.70
42421;DHT22;28063;48.140;11.588;2022-08-03T08:57:27;27.10;54.20
42421;DHT22;28063;48.140;11.588;2022-08-03T08:59:55;27.30;54.10
42421;DHT22;28063;48.140;11.588;2022-08-03T09:02:24;27.40;53.80
42421;DHT22;28063;48.140;11.588;2022-08-03T09:04:50;27.50;53.10
42421;DHT22;28063;48.140;11.588;2022-08-03T09:07:17;27.70;52.00
42421;DHT22;28063;48.140;11.588;2022-08-03T09:09:43;27.70;51.10
42421;DHT22;28063;48.140;11.588;2022-08-03T09:12:09;27.70;51.10
42421;DHT22;28063;48.140;11.588;2022-08-03T09:14:34;27.80;52.00
42421;DHT22;28063;48.140;11.588;2022-08-03T09:17:02;27.90;50.60
42421;DHT22;28063;48.140;11.588;2022-08-03T09:19:29;27.90;50.50
42421;DHT22;28063;48.140;11.588;2022-08-03T09:24:38;28.10;50.30
42421;DHT22;28063;48.140;11.588;2022-08-03T09:27:10;28.20;50.00
42421;DHT22;28063;48.140;11.588;2022-08-03T09:29:41;28.40;49.60
42421;DHT22;28063;48.140;11.588;2022-08-03T09:32:11;28.60;49.20
42421;DHT22;28063;48.140;11.588;2022-08-03T09:34:37;28.80;47.30
42421;DHT22;28063;48.140;11.588;2022-08-03T09:37:12;29.00;47.20
42421;DHT22;28063;48.140;11.588;2022-08-03T09:39:39;29.10;47.60
42421;DHT22;28063;48.140;11.588;2022-08-03T09:44:35;29.20;47.50
42421;DHT22;28063;48.140;11.588;2022-08-03T09:47:01;29.30;47.10
42421;DHT22;28063;48.140;11.588;2022-08-03T09:49:27;29.50;46.50
42421;DHT22;28063;48.140;11.588;2022-08-03T09:51:53;29.60;44.80
42421;DHT22;28063;48.140;11.588;2022-08-03T09:54:29;29.70;45.40
42421;DHT22;28063;48.140;11.588;2022-08-03T09:56:55;29.90;45.40
42421;DHT22;28063;48.140;11.588;2022-08-03T09:59:24;30.00;44.40
42421;DHT22;28063;48.140;11.588;2022-08-03T10:01:51;29.90;45.50
42421;DHT22;28063;48.140;11.588;2022-08-03T10:04:17;29.90;47.10
42421;DHT22;28063;48.140;11.588;2022-08-03T10:06:44;29.90;46.60
42421;DHT22;28063;48.140;11.588;2022-08-03T10:09:13;30.00;47.30
42421;DHT22;28063;48.140;11.588;2022-08-03T10:11:40;30.00;46.10
42421;DHT22;28063;48.140;11.588;2022-08-03T10:14:09;30.10;45.10
42421;DHT22;28063;48.140;11.588;2022-08-03T10:17:00;30.20;45.60
42421;DHT22;28063;48.140;11.588;2022-08-03T10:19:26;30.20;45.00
42421;DHT22;28063;48.140;11.588;2022-08-03T10:22:00;30.40;45.20
42421;DHT22;28063;48.140;11.588;2022-08-03T10:24:29;30.50;45.70
42421;DHT22;28063;48.140;11.588;2022-08-03T10:27:01;30.60;44.90
42421;DHT22;28063;48.140;11.588;2022-08-03T10:29:58;30.50;43.40
42421;DHT22;28063;48.140;11.588;2022-08-03T10:32:54;30.60;45.10
42421;DHT22;28063;48.140;11.588;2022-08-03T10:35:39;30.70;42.00
42421;DHT22;28063;48.140;11.588;2022-08-03T10:38:17;30.70;41.10
42421;DHT22;28063;48.140;11.588;2022-08-03T10:40:45;30.60;41.30
42421;DHT22;28063;48.140;11.588;2022-08-03T10:43:18;30.40;42.30
42421;DHT22;28063;48.140;11.588;2022-08-03T10:45:45;30.50;44.20
42421;DHT22;28063;48.140;11.588;2022-08-03T10:48:11;30.70;44.10
42421;DHT22;28063;48.140;11.588;2022-08-03T10:50:38;30.90;42.90
42421;DHT22;28063;48.140;11.588;2022-08-03T10:53:06;30.90;43.10
42421;DHT22;28063;48.140;11.588;2022-08-03T10:55:39;31.10;42.60
42421;DHT22;28063;48.140;11.588;2022-08-03T11:03:32;31.40;42.60
42421;DHT22;28063;48.140;11.588;2022-08-03T11:06:27;31.50;42.50
42421;DHT22;28063;48.140;11.588;2022-08-03T11:11:34;31.50;41.30
42421;DHT22;28063;48.140;11.588;2022-08-03T11:14:06;31.40;41.80
42421;DHT22;28063;48.140;11.588;2022-08-03T11:16:35;31.60;42.20
42421;DHT22;28063;48.140;11.588;2022-08-03T11:19:04;31.70;43.10
42421;DHT22;28063;48.140;11.588;2022-08-03T11:27:20;31.70;41.40
42421;DHT22;28063;48.140;11.588;2022-08-03T11:30:09;31.90;41.60
42421;DHT22;28063;48.140;11.588;2022-08-03T11:43:03;32.60;40.90
42421;DHT22;28063;48.140;11.588;2022-08-03T11:45:36;32.50;39.60
42421;DHT22;28063;48.140;11.588;2022-08-03T11:48:25;32.50;39.00
42421;DHT22;28063;48.140;11.588;2022-08-03T11:50:53;32.50;37.80
42421;DHT22;28063;48.140;11.588;2022-08-03T11:53:20;32.30;37.40
42421;DHT22;28063;48.140;11.588;2022-08-03T11:55:46;32.30;37.70
42421;DHT22;28063;48.140;11.588;2022-08-03T11:58:20;32.40;38.70
42421;DHT22;28063;48.140;11.588;2022-08-03T12:01:22;32.30;37.40
42421;DHT22;28063;48.140;11.588;2022-08-03T12:03:51;32.30;38.40
42421;DHT22;28063;48.140;11.588;2022-08-03T12:06:17;32.40;39.30
42421;DHT22;28063;48.140;11.588;2022-08-03T12:08:44;32.40;37.00
42421;DHT22;28063;48.140;11.588;2022-08-03T12:11:12;32.30;36.90
42421;DHT22;28063;48.140;11.588;2022-08-03T12:13:58;32.40;37.70
42421;DHT22;28063;48.140;11.588;2022-08-03T12:16:24;32.50;37.50
42421;DHT22;28063;48.140;11.588;2022-08-03T12:19:03;32.50;38.80
42421;DHT22;28063;48.140;11.588;2022-08-03T12:21:31;32.60;39.50
42421;DHT22;28063;48.140;11.588;2022-08-03T12:23:59;32.70;36.80
42421;DHT22;28063;48.140;11.588;2022-08-03T12:26:25;32.70;36.20
42421;DHT22;28063;48.140;11.588;2022-08-03T12:28:51;32.60;36.50
42421;DHT22;28063;48.140;11.588;2022-08-03T12:31:17;32.60;35.80
42421;DHT22;28063;48.140;11.588;2022-08-03T12:34:03;32.70;37.50
42421;DHT22;28063;48.140;11.588;2022-08-03T12:36:32;32.80;38.20
42421;DHT22;28063;48.140;11.588;2022-08-03T12:39:06;33.00;38.00
42421;DHT22;28063;48.140;11.588;2022-08-03T12:41:37;33.20;37.30
42421;DHT22;28063;48.140;11.588;2022-08-03T12:44:05;33.50;37.70
42421;DHT22;28063;48.140;11.588;2022-08-03T12:46:37;33.60;35.40
42421;DHT22;28063;48.140;11.588;2022-08-03T12:49:10;33.30;38.50
42421;DHT22;28063;48.140;11.588;2022-08-03T12:51:57;32.80;39.00
42421;DHT22;28063;48.140;11.588;2022-08-03T12:54:28;32.30;36.80
42421;DHT22;28063;48.140;11.588;2022-08-03T12:57:02;32.30;37.70
42421;DHT22;28063;48.140;11.588;2022-08-03T12:59:33;32.50;37.80
42421;DHT22;28063;48.140;11.588;2022-08-03T13:01:59;32.80;37.60
42421;DHT22;28063;48.140;11.588;2022-08-03T13:04:31;32.90;38.50
42421;DHT22;28063;48.140;11.588;2022-08-03T13:07:17;33.10;36.50
42421;DHT22;28063;48.140;11.588;2022-08-03T13:10:00;33.20;36.90
42421;DHT22;28063;48.140;11.588;2022-08-03T13:12:28;33.30;36.70
42421;DHT22;28063;48.140;11.588;2022-08-03T13:15:11;33.40;37.10
42421;DHT22;28063;48.140;11.588;2022-08-03T13:17:37;33.60;37.00
42421;DHT22;28063;48.140;11.588;2022-08-03T13:20:05;33.90;37.00
42421;DHT22;28063;48.140;11.588;2022-08-03T13:22:40;33.80;34.80
42421;DHT22;28063;48.140;11.588;2022-08-03T13:25:52;33.70;35.00
42421;DHT22;28063;48.140;11.588;2022-08-03T13:28:54;33.70;35.60
42421;DHT22;28063;48.140;11.588;2022-08-03T13:31:28;34.00;35.60
42421;DHT22;28063;48.140;11.588;2022-08-03T13:33:58;34.20;35.20
42421;DHT22;28063;48.140;11.588;2022-08-03T13:36:34;34.40;36.00
42421;DHT22;28063;48.140;11.588;2022-08-03T13:39:02;34.50;36.30
42421;DHT22;28063;48.140;11.588;2022-08-03T13:41:30;34.40;35.60
42421;DHT22;28063;48.140;11.588;2022-08-03T13:43:57;34.00;35.20
42421;DHT22;28063;48.140;11.588;2022-08-03T13:46:24;33.70;36.00
42421;DHT22;28063;48.140;11.588;2022-08-03T13:48:52;33.50;36.00
42421;DHT22;28063;48.140;11.588;2022-08-03T13:51:52;33.30;36.40
42421;DHT22;28063;48.140;11.588;2022-08-03T13:54:44;33.40;37.10
42421;DHT22;28063;48.140;11.588;2022-08-03T13:57:34;33.40;36.80
42421;DHT22;28063;48.140;11.588;2022-08-03T14:00:29;33.40;37.10
42421;DHT22;28063;48.140;11.588;2022-08-03T14:03:52;33.50;37.60
42421;DHT22;28063;48.140;11.588;2022-08-03T14:06:23;33.60;36.60
42421;DHT22;28063;48.140;11.588;2022-08-03T14:08:50;33.60;36.80
42421;DHT22;28063;48.140;11.588;2022-08-03T14:11:17;33.60;36.50
42421;DHT22;28063;48.140;11.588;2022-08-03T14:13:43;33.70;37.30
42421;DHT22;28063;48.140;11.588;2022-08-03T14:16:09;33.90;37.00
42421;DHT22;28063;48.140;11.588;2022-08-03T14:18:35;33.70;37.10
42421;DHT22;28063;48.140;11.588;2022-08-03T14:21:02;33.60;37.30
42421;DHT22;28063;48.140;11.588;2022-08-03T14:23:28;33.40;37.40
42421;DHT22;28063;48.140;11.588;2022-08-03T14:25:54;33.50;37.90
42421;DHT22;28063;48.140;11.588;2022-08-03T14:28:21;33.60;37.80
42421;DHT22;28063;48.140;11.588;2022-08-03T14:30:47;33.70;37.50
42421;DHT22;28063;48.140;11.588;2022-08-03T14:33:13;33.70;37.60
42421;DHT22;28063;48.140;11.588;2022-08-03T14:35:39;33.70;36.20
42421;DHT22;28063;48.140;11.588;2022-08-03T14:38:05;33.60;36.90
42421;DHT22;28063;48.140;11.588;2022-08-03T14:40:30;33.70;37.00
42421;DHT22;28063;48.140;11.588;2022-08-03T14:42:56;33.70;36.90
42421;DHT22;28063;48.140;11.588;2022-08-03T14:45:22;33.80;35.70
42421;DHT22;28063;48.140;11.588;2022-08-03T14:47:48;33.80;38.30
42421;DHT22;28063;48.140;11.588;2022-08-03T14:50:14;33.90;37.50
42421;DHT22;28063;48.140;11.588;2022-08-03T14:52:43;33.90;36.10
42421;DHT22;28063;48.140;11.588;2022-08-03T14:55:10;33.80;36.20
42421;DHT22;28063;48.140;11.588;2022-08-03T14:57:36;33.60;39.00
42421;DHT22;28063;48.140;11.588;2022-08-03T15:00:04;33.40;38.20
42421;DHT22;28063;48.140;11.588;2022-08-03T15:02:30;33.50;37.10
42421;DHT22;28063;48.140;11.588;2022-08-03T15:04:57;33.40;36.90
42421;DHT22;28063;48.140;11.588;2022-08-03T15:07:23;33.30;37.40
42421;DHT22;28063;48.140;11.588;2022-08-03T15:09:48;33.30;37.80
42421;DHT22;28063;48.140;11.588;2022-08-03T15:12:14;33.40;37.90
42421;DHT22;28063;48.140;11.588;2022-08-03T15:14:39;33.40;38.40
42421;DHT22;28063;48.140;11.588;2022-08-03T15:17:06;33.40;37.40
42421;DHT22;28063;48.140;11.588;2022-08-03T15:19:31;33.40;38.80
42421;DHT22;28063;48.140;11.588;2022-08-03T15:22:00;33.40;38.00
42421;DHT22;28063;48.140;11.588;2022-08-03T15:24:26;33.40;38.10
42421;DHT22;28063;48.140;11.588;2022-08-03T15:26:52;33.30;37.20
42421;DHT22;28063;48.140;11.588;2022-08-03T15:29:18;33.20;38.00
42421;DHT22;28063;48.140;11.588;2022-08-03T15:31:44;33.20;37.20
42421;DHT22;28063;48.140;11.588;2022-08-03T15:34:09;33.20;36.80
42421;DHT22;28063;48.140;11.588;2022-08-03T15:36:36;33.00;38.30
42421;DHT22;28063;48.140;11.588;2022-08-03T15:39:03;32.90;37.10
42421;DHT22;28063;48.140;11.588;2022-08-03T15:41:29;32.80;37.30
42421;DHT22;28063;48.140;11.588;2022-08-03T15:43:55;32.90;38.90
42421;DHT22;28063;48.140;11.588;2022-08-03T15:46:21;32.90;36.90
42421;DHT22;28063;48.140;11.588;2022-08-03T15:48:46;32.80;36.70
42421;DHT22;28063;48.140;11.588;2022-08-03T15:51:13;32.70;38.70
42421;DHT22;28063;48.140;11.588;2022-08-03T15:53:38;32.70;37.80
42421;DHT22;28063;48.140;11.588;2022-08-03T15:56:05;32.60;38.10
42421;DHT22;28063;48.140;11.588;2022-08-03T15:58:32;32.60;38.20
42421;DHT22;28063;48.140;11.588;2022-08-03T16:01:01;32.50;37.70
42421;DHT22;28063;48.140;11.588;2022-08-03T16:03:27;32.40;37.50
42421;DHT22;28063;48.140;11.588;2022-08-03T16:05:59;32.40;37.50
42421;DHT22;28063;48.140;11.588;2022-08-03T16:08:25;32.30;37.60
42421;DHT22;28063;48.140;11.588;2022-08-03T16:10:51;32.20;37.60
42421;DHT22;28063;48.140;11.588;2022-08-03T16:13:17;32.20;38.40